createdAt,value
2022-10-29T00:00:43.480Z,12.62
2022-10-29T00:01:43.503Z,12.62
2022-10-29T00:02:43.539Z,12.60
2022-10-29T00:03:43.470Z,12.60
2022-10-29T00:04:43.437Z,12.62
2022-10-29T00:05:43.423Z,12.60
2022-10-29T00:06:43.499Z,12.59
2022-10-29T00:07:43.427Z,12.59
2022-10-29T00:08:43.393Z,12.56
2022-10-29T00:09:43.377Z,12.54
2022-10-29T00:10:43.371Z,12.52
2022-10-29T00:11:43.356Z,12.47
2022-10-29T00:12:43.351Z,12.45
2022-10-29T00:13:43.370Z,12.45
2022-10-29T00:14:43.347Z,12.41
2022-10-29T00:15:43.312Z,12.39
2022-10-29T00:16:43.307Z,12.38
2022-10-29T00:17:43.289Z,12.37
2022-10-29T00:18:43.283Z,12.32
2022-10-29T00:19:43.295Z,12.29
2022-10-29T00:20:43.260Z,12.28
2022-10-29T00:21:43.246Z,12.27
2022-10-29T00:22:43.239Z,12.28
2022-10-29T00:23:43.226Z,12.28
2022-10-29T00:24:43.216Z,12.28
2022-10-29T00:25:43.221Z,12.31
2022-10-29T00:26:43.221Z,12.32
2022-10-29T00:27:43.181Z,12.35
2022-10-29T00:28:43.178Z,12.34
2022-10-29T00:29:43.159Z,12.34
2022-10-29T00:30:43.152Z,12.31
2022-10-29T00:31:43.215Z,12.28
2022-10-29T00:32:43.150Z,12.24
2022-10-29T00:33:43.119Z,12.23
2022-10-29T00:34:43.110Z,12.21
2022-10-29T00:35:43.092Z,12.19
2022-10-29T00:36:43.085Z,12.17
2022-10-29T00:37:43.100Z,12.16
2022-10-29T00:38:43.064Z,12.14
2022-10-29T00:39:43.051Z,12.14
2022-10-29T00:40:43.042Z,12.13
2022-10-29T00:41:43.028Z,12.13
2022-10-29T00:42:43.049Z,12.13
2022-10-29T00:43:43.005Z,12.14
2022-10-29T00:44:42.999Z,12.14
2022-10-29T00:45:42.984Z,12.13
2022-10-29T00:46:42.977Z,12.13
2022-10-29T00:47:42.984Z,12.13
2022-10-29T00:48:42.956Z,12.12
2022-10-29T00:49:42.943Z,12.10
2022-10-29T00:50:42.932Z,12.09
2022-10-29T00:51:42.937Z,12.05
2022-10-29T00:52:42.911Z,12.04
2022-10-29T00:53:42.902Z,12.01
2022-10-29T00:54:42.911Z,12.02
2022-10-29T00:55:42.879Z,12.01
2022-10-29T00:56:42.922Z,11.99
2022-10-29T00:57:42.853Z,12.01
2022-10-29T00:58:42.875Z,11.99
2022-10-29T00:59:42.880Z,11.99
2022-10-29T01:00:42.824Z,11.98
2022-10-29T01:01:42.917Z,11.98
2022-10-29T01:02:42.985Z,11.96
2022-10-29T01:03:42.812Z,11.94
2022-10-29T01:04:42.781Z,11.94
2022-10-29T01:05:42.765Z,11.90
2022-10-29T01:06:42.759Z,11.90
2022-10-29T01:07:42.743Z,11.85
2022-10-29T01:08:42.765Z,11.83
2022-10-29T01:09:42.725Z,11.80
2022-10-29T01:10:42.714Z,11.79
2022-10-29T01:11:42.702Z,11.80
2022-10-29T01:12:42.693Z,11.80
2022-10-29T01:13:42.703Z,11.82
2022-10-29T01:14:42.678Z,11.82
2022-10-29T01:15:42.661Z,11.79
2022-10-29T01:16:42.651Z,11.80
2022-10-29T01:17:42.635Z,11.78
2022-10-29T01:18:42.728Z,11.78
2022-10-29T01:19:42.614Z,11.76
2022-10-29T01:20:42.606Z,11.76
2022-10-29T01:21:42.610Z,11.73
2022-10-29T01:22:42.587Z,11.72
2022-10-29T01:23:42.581Z,11.73
2022-10-29T01:24:42.586Z,11.73
2022-10-29T01:25:42.553Z,11.73
2022-10-29T01:26:42.542Z,11.75
2022-10-29T01:27:42.534Z,11.72
2022-10-29T01:28:42.523Z,11.70
2022-10-29T01:29:42.522Z,11.67
2022-10-29T01:30:42.497Z,11.67
2022-10-29T01:31:42.483Z,11.65
2022-10-29T01:32:42.478Z,11.62
2022-10-29T01:33:42.492Z,11.64
2022-10-29T01:34:42.476Z,11.62
2022-10-29T01:35:42.441Z,11.62
2022-10-29T01:36:42.463Z,11.62
2022-10-29T01:37:42.419Z,11.60
2022-10-29T01:38:42.415Z,11.61
2022-10-29T01:39:42.399Z,11.60
2022-10-29T01:40:42.413Z,11.60
2022-10-29T01:41:42.414Z,11.60
2022-10-29T01:42:42.371Z,11.61
2022-10-29T01:43:42.357Z,11.61
2022-10-29T01:44:42.349Z,11.60
2022-10-29T01:45:42.339Z,11.60
2022-10-29T01:46:42.328Z,11.57
2022-10-29T01:47:42.334Z,11.57
2022-10-29T01:48:42.306Z,11.55
2022-10-29T01:49:42.292Z,11.54
2022-10-29T01:50:42.286Z,11.52
2022-10-29T01:51:42.300Z,11.51
2022-10-29T01:52:42.285Z,11.46
2022-10-29T01:53:42.248Z,11.46
2022-10-29T01:54:42.248Z,11.46
2022-10-29T01:55:42.226Z,11.46
2022-10-29T01:56:42.218Z,11.42
2022-10-29T01:57:42.228Z,11.42
2022-10-29T01:58:42.226Z,11.42
2022-10-29T01:59:55.003Z,11.39
2022-10-29T02:00:42.271Z,11.39
2022-10-29T02:01:42.195Z,11.39
2022-10-29T02:02:47.236Z,11.37
2022-10-29T02:03:42.180Z,11.35
2022-10-29T02:04:42.145Z,11.33
2022-10-29T02:05:42.120Z,11.32
2022-10-29T02:06:42.110Z,11.32
2022-10-29T02:07:42.099Z,11.27
2022-10-29T02:08:42.088Z,11.27
2022-10-29T02:09:42.104Z,11.27
2022-10-29T02:10:42.067Z,11.27
2022-10-29T02:11:42.053Z,11.25
2022-10-29T02:12:42.046Z,11.28
2022-10-29T02:13:42.047Z,11.28
2022-10-29T02:14:42.025Z,11.28
2022-10-29T02:15:42.030Z,11.28
2022-10-29T02:16:42.004Z,11.28
2022-10-29T02:17:42.021Z,11.24
2022-10-29T02:18:41.981Z,11.22
2022-10-29T02:19:41.974Z,11.24
2022-10-29T02:20:41.962Z,11.19
2022-10-29T02:21:41.953Z,11.19
2022-10-29T02:22:41.939Z,11.19
2022-10-29T02:23:41.941Z,11.19
2022-10-29T02:24:41.947Z,11.15
2022-10-29T02:25:41.988Z,11.11
2022-10-29T02:26:41.916Z,11.09
2022-10-29T02:27:41.919Z,11.06
2022-10-29T02:28:41.873Z,11.04
2022-10-29T02:29:41.860Z,11.03
2022-10-29T02:30:41.854Z,11.02
2022-10-29T02:31:41.838Z,11.02
2022-10-29T02:32:41.830Z,11.00
2022-10-29T02:33:41.857Z,10.99
2022-10-29T02:34:41.808Z,10.99
2022-10-29T02:35:41.798Z,10.99
2022-10-29T02:36:41.789Z,10.99
2022-10-29T02:37:41.774Z,10.99
2022-10-29T02:38:41.769Z,10.96
2022-10-29T02:39:41.776Z,10.94
2022-10-29T02:40:41.745Z,10.92
2022-10-29T02:41:41.733Z,10.92
2022-10-29T02:42:41.723Z,10.91
2022-10-29T02:43:41.731Z,10.91
2022-10-29T02:44:41.704Z,10.89
2022-10-29T02:45:41.686Z,10.88
2022-10-29T02:46:41.683Z,10.91
2022-10-29T02:47:41.683Z,10.94
2022-10-29T02:48:41.656Z,10.96
2022-10-29T02:49:41.648Z,10.94
2022-10-29T02:50:41.649Z,10.96
2022-10-29T02:51:41.626Z,10.94
2022-10-29T02:52:41.611Z,10.91
2022-10-29T02:53:41.645Z,10.92
2022-10-29T02:54:41.593Z,10.92
2022-10-29T02:55:41.583Z,10.92
2022-10-29T02:56:41.568Z,10.96
2022-10-29T02:57:41.560Z,10.96
2022-10-29T02:58:41.567Z,10.97
2022-10-29T02:59:41.537Z,10.99
2022-10-29T03:00:41.533Z,10.99
2022-10-29T03:01:41.665Z,10.96
2022-10-29T03:02:41.579Z,10.97
2022-10-29T03:03:41.496Z,10.97
2022-10-29T03:04:41.517Z,10.96
2022-10-29T03:05:46.475Z,10.96
2022-10-29T03:06:41.466Z,10.96
2022-10-29T03:07:41.452Z,10.97
2022-10-29T03:08:41.438Z,10.94
2022-10-29T03:09:41.460Z,10.91
2022-10-29T03:10:41.426Z,10.92
2022-10-29T03:11:41.410Z,10.91
2022-10-29T03:12:41.395Z,10.94
2022-10-29T03:13:41.425Z,10.92
2022-10-29T03:14:41.375Z,10.92
2022-10-29T03:15:41.393Z,10.91
2022-10-29T03:16:41.351Z,10.89
2022-10-29T03:17:41.374Z,10.88
2022-10-29T03:18:41.332Z,10.86
2022-10-29T03:19:41.324Z,10.82
2022-10-29T03:20:41.326Z,10.81
2022-10-29T03:21:41.305Z,10.79
2022-10-29T03:22:41.291Z,10.76
2022-10-29T03:23:41.312Z,10.71
2022-10-29T03:24:41.264Z,10.73
2022-10-29T03:25:41.285Z,10.73
2022-10-29T03:26:41.250Z,10.71
2022-10-29T03:27:41.250Z,10.73
2022-10-29T03:28:41.264Z,10.71
2022-10-29T03:29:41.220Z,10.70
2022-10-29T03:30:41.230Z,10.70
2022-10-29T03:31:41.195Z,10.67
2022-10-29T03:32:41.186Z,10.64
2022-10-29T03:33:41.176Z,10.63
2022-10-29T03:34:41.160Z,10.61
2022-10-29T03:35:41.200Z,10.63
2022-10-29T03:36:41.167Z,10.61
2022-10-29T03:37:41.130Z,10.63
2022-10-29T03:38:41.117Z,10.60
2022-10-29T03:39:41.105Z,10.60
2022-10-29T03:40:41.097Z,10.60
2022-10-29T03:41:41.091Z,10.59
2022-10-29T03:42:41.104Z,10.56
2022-10-29T03:43:41.171Z,10.56
2022-10-29T03:44:41.063Z,10.56
2022-10-29T03:45:41.042Z,10.56
2022-10-29T03:46:41.056Z,10.55
2022-10-29T03:47:41.022Z,10.55
2022-10-29T03:48:41.013Z,10.53
2022-10-29T03:49:41.000Z,10.51
2022-10-29T03:50:41.002Z,10.48
2022-10-29T03:51:40.978Z,10.47
2022-10-29T03:52:40.964Z,10.42
2022-10-29T03:53:40.980Z,10.41
2022-10-29T03:54:40.944Z,10.40
2022-10-29T03:55:40.937Z,10.36
2022-10-29T03:56:40.920Z,10.34
2022-10-29T03:57:40.911Z,10.34
2022-10-29T03:58:40.918Z,10.33
2022-10-29T03:59:40.921Z,10.32
2022-10-29T04:00:40.887Z,10.32
2022-10-29T04:01:41.055Z,10.27
2022-10-29T04:02:41.040Z,10.26
2022-10-29T04:03:40.849Z,10.26
2022-10-29T04:04:40.864Z,10.25
2022-10-29T04:05:40.827Z,10.23
2022-10-29T04:06:40.819Z,10.22
2022-10-29T04:07:40.815Z,10.23
2022-10-29T04:08:40.799Z,10.20
2022-10-29T04:09:40.829Z,10.22
2022-10-29T04:10:40.775Z,10.20
2022-10-29T04:11:40.765Z,10.18
2022-10-29T04:12:40.761Z,10.20
2022-10-29T04:13:40.748Z,10.18
2022-10-29T04:14:44.601Z,10.18
2022-10-29T04:15:40.730Z,10.20
2022-10-29T04:16:40.707Z,10.22
2022-10-29T04:17:40.716Z,10.22
2022-10-29T04:18:40.689Z,10.20
2022-10-29T04:19:40.689Z,10.18
2022-10-29T04:21:05.833Z,10.17
2022-10-29T04:26:48.131Z,10.15
2022-10-29T04:28:42.890Z,10.15
2022-10-29T04:28:47.973Z,10.09
2022-10-29T04:29:32.497Z,10.08
2022-10-29T04:30:32.479Z,10.09
2022-10-29T04:31:32.468Z,10.09
2022-10-29T04:32:32.456Z,10.09
2022-10-29T04:33:32.480Z,10.09
2022-10-29T04:34:32.444Z,10.08
2022-10-29T04:35:32.423Z,10.08
2022-10-29T04:36:32.417Z,10.08
2022-10-29T04:37:32.411Z,10.08
2022-10-29T04:38:32.393Z,10.08
2022-10-29T04:39:32.395Z,10.07
2022-10-29T04:40:32.386Z,10.08
2022-10-29T04:41:32.358Z,10.07
2022-10-29T04:42:32.354Z,10.05
2022-10-29T04:43:32.347Z,10.05
2022-10-29T04:44:32.379Z,10.05
2022-10-29T04:45:32.373Z,10.07
2022-10-29T04:46:32.304Z,10.08
2022-10-29T04:47:32.294Z,10.07
2022-10-29T04:48:32.283Z,10.08
2022-10-29T04:49:32.323Z,10.07
2022-10-29T04:50:32.291Z,10.05
2022-10-29T04:51:32.253Z,10.07
2022-10-29T04:52:32.241Z,10.05
2022-10-29T04:53:32.229Z,10.04
2022-10-29T04:54:32.220Z,10.01
2022-10-29T04:55:32.224Z,9.99
2022-10-29T04:56:32.202Z,9.96
2022-10-29T04:57:32.192Z,9.96
2022-10-29T04:58:32.179Z,9.96
2022-10-29T04:59:32.163Z,9.94
2022-10-29T05:00:32.178Z,9.96
2022-10-29T05:01:32.357Z,9.94
2022-10-29T05:02:32.163Z,9.93
2022-10-29T05:03:32.120Z,9.93
2022-10-29T05:04:32.131Z,9.91
2022-10-29T05:05:32.098Z,9.94
2022-10-29T05:06:32.098Z,9.94
2022-10-29T05:07:32.106Z,9.94
2022-10-29T05:08:32.071Z,9.96
2022-10-29T05:09:32.055Z,9.94
2022-10-29T05:10:32.051Z,9.96
2022-10-29T05:11:32.037Z,9.96
2022-10-29T05:12:32.055Z,9.96
2022-10-29T05:13:32.015Z,9.99
2022-10-29T05:14:32.017Z,9.99
2022-10-29T05:15:31.993Z,10.01
2022-10-29T05:16:31.989Z,10.01
2022-10-29T05:17:32.001Z,10.01
2022-10-29T05:18:31.962Z,10.02
2022-10-29T05:19:32.007Z,10.04
2022-10-29T05:20:31.963Z,10.02
2022-10-29T05:21:31.930Z,10.05
2022-10-29T05:22:31.920Z,10.05
2022-10-29T05:23:31.946Z,10.07
2022-10-29T05:24:31.916Z,10.07
2022-10-29T05:25:31.886Z,10.07
2022-10-29T05:26:31.892Z,10.08
2022-10-29T05:27:31.883Z,10.08
2022-10-29T05:28:31.852Z,10.11
2022-10-29T05:29:31.895Z,10.12
2022-10-29T05:30:31.849Z,10.14
2022-10-29T05:31:31.828Z,10.15
2022-10-29T05:32:31.858Z,10.17
2022-10-29T05:33:31.800Z,10.18
2022-10-29T05:34:31.791Z,10.17
2022-10-29T05:35:31.751Z,10.18
2022-10-29T05:36:31.768Z,10.18
2022-10-29T05:37:31.711Z,10.22
2022-10-29T05:38:31.696Z,10.23
2022-10-29T05:39:31.689Z,10.23
2022-10-29T05:40:31.753Z,10.25
2022-10-29T05:41:31.730Z,10.27
2022-10-29T05:42:31.709Z,10.27
2022-10-29T05:43:31.695Z,10.32
2022-10-29T05:44:31.658Z,10.34
2022-10-29T05:45:31.715Z,10.38
2022-10-29T05:46:31.614Z,10.38
2022-10-29T05:47:31.603Z,10.40
2022-10-29T05:48:31.584Z,10.42
2022-10-29T05:49:31.571Z,10.42
2022-10-29T05:50:31.564Z,10.45
2022-10-29T05:51:31.572Z,10.44
2022-10-29T05:52:31.548Z,10.47
2022-10-29T05:53:31.531Z,10.47
2022-10-29T05:54:31.525Z,10.47
2022-10-29T05:55:31.509Z,10.47
2022-10-29T05:56:31.517Z,10.48
2022-10-29T05:57:31.486Z,10.51
2022-10-29T05:58:31.479Z,10.52
2022-10-29T05:59:33.698Z,10.53
2022-10-29T06:00:31.455Z,10.55
2022-10-29T06:01:31.665Z,10.56
2022-10-29T06:02:31.564Z,10.59
2022-10-29T06:03:31.420Z,10.60
2022-10-29T06:04:31.414Z,10.60
2022-10-29T06:05:31.406Z,10.61
2022-10-29T06:06:31.489Z,10.63
2022-10-29T06:07:31.406Z,10.64
2022-10-29T06:08:31.370Z,10.63
2022-10-29T06:09:31.361Z,10.64
2022-10-29T06:10:31.352Z,10.66
2022-10-29T06:11:31.334Z,10.66
2022-10-29T06:12:34.733Z,10.67
2022-10-29T06:13:31.317Z,10.68
2022-10-29T06:14:31.305Z,10.68
2022-10-29T06:15:31.291Z,10.71
2022-10-29T06:16:31.285Z,10.71
2022-10-29T06:17:31.269Z,10.71
2022-10-29T06:18:31.288Z,10.71
2022-10-29T06:19:31.273Z,10.71
2022-10-29T06:20:31.253Z,10.71
2022-10-29T06:21:31.227Z,10.73
2022-10-29T06:22:31.247Z,10.76
2022-10-29T06:23:31.232Z,10.76
2022-10-29T06:24:31.196Z,10.79
2022-10-29T06:25:31.205Z,10.81
2022-10-29T06:26:31.188Z,10.84
2022-10-29T06:27:31.163Z,10.88
2022-10-29T06:28:33.616Z,10.92
2022-10-29T06:29:31.142Z,10.94
2022-10-29T06:30:31.132Z,10.96
2022-10-29T06:31:31.127Z,10.99
2022-10-29T06:32:31.113Z,11.03
2022-10-29T06:33:31.122Z,11.06
2022-10-29T06:35:41.907Z,11.14
2022-10-29T06:36:42.863Z,11.15
2022-10-29T06:37:42.851Z,11.17
2022-10-29T06:38:42.843Z,11.19
2022-10-29T06:39:42.841Z,11.22
2022-10-29T06:40:42.848Z,11.24
2022-10-29T06:41:42.811Z,11.27
2022-10-29T06:42:42.814Z,11.29
2022-10-29T06:43:42.789Z,11.32
2022-10-29T06:44:42.807Z,11.35
2022-10-29T06:45:42.767Z,11.35
2022-10-29T06:46:42.773Z,11.37
2022-10-29T06:47:42.749Z,11.39
2022-10-29T06:48:42.740Z,11.40
2022-10-29T06:49:42.752Z,11.44
2022-10-29T06:50:42.720Z,11.46
2022-10-29T06:51:42.708Z,11.49
2022-10-29T06:52:42.698Z,11.52
2022-10-29T06:53:42.722Z,11.57
2022-10-29T06:54:42.709Z,11.60
2022-10-29T06:55:42.666Z,11.62
2022-10-29T06:56:42.675Z,11.70
2022-10-29T06:57:42.641Z,11.75
2022-10-29T06:58:42.634Z,11.82
2022-10-29T06:59:42.620Z,11.85
2022-10-29T07:00:42.833Z,11.90
2022-10-29T07:01:43.416Z,11.90
2022-10-29T07:02:42.592Z,11.91
2022-10-29T07:03:42.580Z,11.90
2022-10-29T07:04:42.570Z,11.90
2022-10-29T07:05:42.568Z,11.94
2022-10-29T07:06:42.561Z,11.94
2022-10-29T07:07:42.531Z,11.98
2022-10-29T07:08:42.529Z,11.98
2022-10-29T07:09:42.512Z,12.01
2022-10-29T07:10:42.514Z,12.04
2022-10-29T07:11:42.503Z,12.07
2022-10-29T07:12:42.496Z,12.12
2022-10-29T07:13:42.473Z,12.16
2022-10-29T07:14:42.474Z,12.19
2022-10-29T07:15:42.450Z,12.23
2022-10-29T07:16:42.464Z,12.27
2022-10-29T07:17:42.431Z,12.29
2022-10-29T07:18:42.421Z,12.31
2022-10-29T07:19:42.415Z,12.34
2022-10-29T07:20:42.400Z,12.38
2022-10-29T07:21:42.392Z,12.39
2022-10-29T07:22:42.399Z,12.42
2022-10-29T07:23:42.365Z,12.42
2022-10-29T07:24:42.353Z,12.46
2022-10-29T07:25:42.359Z,12.47
2022-10-29T07:26:42.342Z,12.52
2022-10-29T07:27:42.391Z,12.54
2022-10-29T07:28:42.349Z,12.59
2022-10-29T07:29:42.296Z,12.64
2022-10-29T07:30:42.294Z,12.65
2022-10-29T07:31:42.286Z,12.70
2022-10-29T07:32:42.269Z,12.74
2022-10-29T07:33:42.263Z,12.78
2022-10-29T07:34:42.252Z,12.83
2022-10-29T07:35:42.233Z,12.86
2022-10-29T07:36:42.235Z,12.92
2022-10-29T07:37:42.224Z,12.97
2022-10-29T07:38:42.226Z,13.03
2022-10-29T07:39:42.192Z,13.07
2022-10-29T07:40:42.184Z,13.12
2022-10-29T07:41:42.170Z,13.15
2022-10-29T07:42:42.164Z,13.19
2022-10-29T07:43:42.151Z,13.23
2022-10-29T07:44:42.154Z,13.29
2022-10-29T07:45:42.129Z,13.30
2022-10-29T07:46:42.139Z,13.36
2022-10-29T07:47:42.111Z,13.39
2022-10-29T07:48:42.099Z,13.42
2022-10-29T07:49:42.096Z,13.46
2022-10-29T07:50:42.098Z,13.48
2022-10-29T07:51:42.082Z,13.52
2022-10-29T07:52:42.058Z,13.54
2022-10-29T07:53:42.044Z,13.57
2022-10-29T07:54:42.036Z,13.60
2022-10-29T07:55:42.035Z,13.64
2022-10-29T07:56:45.164Z,13.66
2022-10-29T07:57:42.014Z,13.71
2022-10-29T07:58:42.008Z,13.73
2022-10-29T07:59:41.984Z,13.79
2022-10-29T08:00:42.048Z,13.82
2022-10-29T08:01:42.037Z,13.88
2022-10-29T08:02:41.949Z,13.91
2022-10-29T08:03:41.939Z,13.97
2022-10-29T08:04:41.930Z,14.00
2022-10-29T08:05:42.943Z,14.04
2022-10-29T08:06:41.908Z,14.07
2022-10-29T08:07:41.895Z,14.10
2022-10-29T08:08:41.889Z,14.14
2022-10-29T08:09:41.878Z,14.17
2022-10-29T08:10:41.869Z,14.18
2022-10-29T08:11:41.912Z,14.20
2022-10-29T08:12:41.849Z,14.21
2022-10-29T08:13:41.838Z,14.27
2022-10-29T08:14:41.824Z,14.32
2022-10-29T08:15:41.822Z,14.36
2022-10-29T08:16:41.822Z,14.43
2022-10-29T08:17:41.796Z,14.46
2022-10-29T08:18:41.780Z,14.50
2022-10-29T08:19:41.774Z,14.54
2022-10-29T08:20:41.762Z,14.55
2022-10-29T08:21:41.756Z,14.62
2022-10-29T08:22:41.763Z,14.68
2022-10-29T08:23:41.736Z,14.75
2022-10-29T08:24:41.727Z,14.80
2022-10-29T08:25:41.762Z,14.83
2022-10-29T08:26:41.706Z,14.86
2022-10-29T08:27:41.769Z,14.88
2022-10-29T08:28:41.677Z,14.91
2022-10-29T08:29:41.681Z,14.92
2022-10-29T08:30:41.661Z,14.94
2022-10-29T08:31:41.656Z,14.98
2022-10-29T08:32:41.638Z,15.01
2022-10-29T08:33:41.627Z,15.06
2022-10-29T08:34:41.635Z,15.09
2022-10-29T08:35:41.609Z,15.16
2022-10-29T08:36:41.592Z,15.21
2022-10-29T08:37:41.585Z,15.27
2022-10-29T08:38:41.571Z,15.34
2022-10-29T08:39:41.572Z,15.39
2022-10-29T08:40:41.562Z,15.47
2022-10-29T08:41:41.546Z,15.57
2022-10-29T08:42:41.533Z,15.69
2022-10-29T08:43:47.044Z,15.80
2022-10-29T08:44:41.514Z,15.86
2022-10-29T08:45:41.510Z,15.96
2022-10-29T08:46:41.493Z,16.05
2022-10-29T08:47:41.477Z,16.17
2022-10-29T08:48:41.467Z,16.25
2022-10-29T08:49:41.456Z,16.35
2022-10-29T08:50:41.445Z,16.48
2022-10-29T08:51:41.448Z,16.56
2022-10-29T08:52:52.814Z,16.63
2022-10-29T08:53:41.420Z,16.64
2022-10-29T08:54:41.396Z,16.73
2022-10-29T08:55:41.389Z,16.83
2022-10-29T08:56:41.377Z,16.86
2022-10-29T08:57:41.382Z,16.91
2022-10-29T08:58:41.357Z,16.94
2022-10-29T08:59:41.346Z,17.00
2022-10-29T09:00:41.414Z,17.08
2022-10-29T09:01:41.406Z,17.11
2022-10-29T09:02:41.338Z,17.15
2022-10-29T09:03:41.305Z,17.19
2022-10-29T09:04:41.294Z,17.22
2022-10-29T09:05:41.289Z,17.23
2022-10-29T09:06:41.270Z,17.22
2022-10-29T09:07:41.262Z,17.23
2022-10-29T09:08:41.263Z,17.26
2022-10-29T09:09:41.251Z,17.25
2022-10-29T09:10:41.229Z,17.21
2022-10-29T09:11:41.223Z,17.18
2022-10-29T09:12:41.212Z,17.19
2022-10-29T09:13:41.198Z,17.21
2022-10-29T09:14:41.211Z,17.19
2022-10-29T09:15:41.178Z,17.21
2022-10-29T09:17:41.185Z,17.23
2022-10-29T09:18:41.153Z,17.26
2022-10-29T09:19:41.145Z,17.30
2022-10-29T09:20:41.129Z,17.30
2022-10-29T09:21:41.114Z,17.31
2022-10-29T09:22:41.100Z,17.31
2022-10-29T09:23:41.109Z,17.22
2022-10-29T09:24:41.084Z,17.18
2022-10-29T09:25:41.103Z,17.15
2022-10-29T09:26:41.061Z,17.19
2022-10-29T09:27:41.052Z,17.18
2022-10-29T09:28:41.038Z,17.19
2022-10-29T09:29:41.039Z,17.21
2022-10-29T09:30:41.018Z,17.28
2022-10-29T09:31:41.008Z,17.33
2022-10-29T09:32:41.020Z,17.34
2022-10-29T09:33:40.992Z,17.37
2022-10-29T09:34:40.982Z,17.46
2022-10-29T09:35:40.967Z,17.51
2022-10-29T09:36:40.954Z,17.63
2022-10-29T09:37:40.948Z,17.75
2022-10-29T09:38:40.945Z,17.84
2022-10-29T09:39:40.924Z,17.95
2022-10-29T09:40:40.922Z,18.08
2022-10-29T09:41:40.904Z,18.14
2022-10-29T09:42:40.887Z,18.17
2022-10-29T09:43:40.887Z,18.27
2022-10-29T09:44:40.888Z,18.35
2022-10-29T09:45:40.868Z,18.36
2022-10-29T09:46:40.845Z,18.41
2022-10-29T09:47:40.835Z,18.51
2022-10-29T09:48:40.838Z,18.70
2022-10-29T09:49:40.817Z,18.73
2022-10-29T09:50:40.800Z,18.82
2022-10-29T09:51:40.794Z,18.95
2022-10-29T09:52:40.787Z,18.90
2022-10-29T09:53:40.786Z,18.87
2022-10-29T09:54:40.764Z,18.82
2022-10-29T09:55:40.754Z,18.88
2022-10-29T09:56:40.739Z,19.04
2022-10-29T09:57:40.742Z,19.41
2022-10-29T09:58:40.716Z,19.56
2022-10-29T09:59:40.722Z,19.68
2022-10-29T10:00:40.697Z,20.05
2022-10-29T10:01:40.856Z,20.59
2022-10-29T10:02:40.771Z,20.91
2022-10-29T10:03:40.668Z,21.21
2022-10-29T10:04:40.656Z,21.58
2022-10-29T10:05:40.655Z,21.86
2022-10-29T10:06:41.485Z,22.14
2022-10-29T10:07:40.638Z,22.25
2022-10-29T10:08:40.610Z,22.37
2022-10-29T10:09:40.607Z,22.33
2022-10-29T10:10:40.596Z,22.57
2022-10-29T10:11:40.712Z,22.83
2022-10-29T10:12:40.568Z,23.04
2022-10-29T10:13:40.559Z,23.15
2022-10-29T10:14:40.545Z,23.42
2022-10-29T10:15:40.537Z,23.57
2022-10-29T10:16:40.528Z,23.66
2022-10-29T10:17:40.541Z,23.68
2022-10-29T10:18:40.578Z,23.72
2022-10-29T10:19:40.497Z,23.38
2022-10-29T10:20:40.478Z,23.53
2022-10-29T10:21:40.472Z,23.05
2022-10-29T10:22:40.457Z,22.75
2022-10-29T10:23:40.461Z,22.67
2022-10-29T10:24:40.439Z,22.72
2022-10-29T10:25:40.562Z,22.76
2022-10-29T10:26:40.415Z,23.09
2022-10-29T10:27:40.422Z,23.53
2022-10-29T10:28:40.397Z,24.06
2022-10-29T10:29:40.391Z,24.42
2022-10-29T10:30:40.377Z,24.84
2022-10-29T10:31:40.431Z,25.17
2022-10-29T10:32:40.368Z,25.42
2022-10-29T10:33:40.351Z,25.61
2022-10-29T10:34:40.333Z,25.50
2022-10-29T10:35:40.326Z,25.14
2022-10-29T10:36:40.313Z,24.65
2022-10-29T10:37:40.326Z,24.55
2022-10-29T10:38:40.305Z,24.77
2022-10-29T10:39:40.287Z,25.02
2022-10-29T10:40:40.283Z,25.36
2022-10-29T10:41:40.261Z,25.60
2022-10-29T10:42:40.250Z,25.42
2022-10-29T10:43:40.283Z,25.54
2022-10-29T10:44:40.228Z,25.64
2022-10-29T10:45:40.329Z,25.57
2022-10-29T10:46:40.211Z,25.30
2022-10-29T10:47:40.199Z,25.42
2022-10-29T10:48:40.190Z,25.60
2022-10-29T10:49:40.180Z,25.76
2022-10-29T10:50:40.165Z,26.01
2022-10-29T10:51:40.188Z,26.18
2022-10-29T10:52:40.143Z,26.45
2022-10-29T10:53:40.134Z,26.52
2022-10-29T10:54:40.166Z,26.52
2022-10-29T10:55:40.137Z,26.72
2022-10-29T10:56:40.131Z,26.92
2022-10-29T10:57:40.097Z,27.19
2022-10-29T10:58:40.083Z,27.40
2022-10-29T10:59:40.076Z,27.59
2022-10-29T11:00:40.110Z,27.57
2022-10-29T11:01:40.223Z,27.72
2022-10-29T11:02:40.049Z,27.77
2022-10-29T11:03:40.037Z,27.82
2022-10-29T11:04:40.021Z,27.93
2022-10-29T11:05:40.034Z,27.67
2022-10-29T11:06:40.034Z,27.84
2022-10-29T11:07:39.996Z,27.66
2022-10-29T11:08:39.981Z,27.40
2022-10-29T11:09:39.976Z,27.39
2022-10-29T11:10:39.961Z,27.50
2022-10-29T11:11:39.973Z,27.75
2022-10-29T11:12:39.941Z,27.39
2022-10-29T11:13:39.932Z,27.43
2022-10-29T11:14:39.918Z,27.77
2022-10-29T11:15:39.918Z,28.22
2022-10-29T11:16:39.914Z,28.51
2022-10-29T11:17:39.892Z,28.48
2022-10-29T11:18:39.898Z,28.40
2022-10-29T11:19:39.866Z,28.07
2022-10-29T11:20:39.855Z,27.55
2022-10-29T11:21:39.849Z,27.13
2022-10-29T11:22:39.837Z,26.82
2022-10-29T11:23:39.868Z,26.80
2022-10-29T11:24:39.820Z,26.80
2022-10-29T11:25:39.809Z,26.70
2022-10-29T11:26:39.794Z,26.47
2022-10-29T11:27:39.786Z,26.21
2022-10-29T11:28:39.776Z,26.07
2022-10-29T11:29:39.794Z,26.07
2022-10-29T11:30:39.754Z,26.06
2022-10-29T11:31:39.748Z,25.90
2022-10-29T11:32:39.738Z,25.94
2022-10-29T11:33:39.730Z,25.85
2022-10-29T11:34:39.733Z,25.88
2022-10-29T11:35:39.708Z,25.76
2022-10-29T11:36:39.695Z,25.69
2022-10-29T11:37:39.686Z,25.54
2022-10-29T11:38:39.672Z,25.46
2022-10-29T11:39:39.696Z,25.28
2022-10-29T11:40:39.681Z,25.24
2022-10-29T11:41:39.649Z,25.25
2022-10-29T11:42:39.633Z,25.18
2022-10-29T11:43:39.628Z,24.98
2022-10-29T11:44:39.609Z,24.85
2022-10-29T11:45:39.603Z,24.81
2022-10-29T11:46:39.614Z,24.80
2022-10-29T11:47:39.583Z,24.81
2022-10-29T11:48:39.578Z,24.65
2022-10-29T11:49:39.564Z,24.55
2022-10-29T11:50:39.549Z,24.55
2022-10-29T11:51:39.563Z,24.67
2022-10-29T11:52:39.526Z,24.68
2022-10-29T11:53:39.518Z,24.77
2022-10-29T11:54:39.510Z,24.81
2022-10-29T11:55:39.497Z,24.87
2022-10-29T11:56:39.484Z,24.85
2022-10-29T11:57:39.500Z,24.93
2022-10-29T11:58:40.706Z,25.06
2022-10-29T11:59:39.477Z,25.36
2022-10-29T12:00:39.442Z,25.83
2022-10-29T12:01:39.481Z,26.35
2022-10-29T12:02:39.426Z,26.54
2022-10-29T12:03:39.489Z,26.69
2022-10-29T12:04:39.435Z,26.39
2022-10-29T12:05:39.395Z,26.39
2022-10-29T12:06:39.385Z,26.30
2022-10-29T12:07:39.372Z,26.28
2022-10-29T12:08:39.358Z,26.48
2022-10-29T12:09:38.356Z,26.35
2022-10-29T12:10:39.363Z,26.26
2022-10-29T12:11:42.946Z,26.15
2022-10-29T12:12:39.319Z,26.05
2022-10-29T12:13:39.310Z,26.07
2022-10-29T12:14:39.296Z,26.12
2022-10-29T12:15:39.315Z,25.98
2022-10-29T12:16:39.597Z,25.91
2022-10-29T12:17:39.292Z,25.97
2022-10-29T12:18:39.253Z,25.88
2022-10-29T12:19:39.247Z,25.91
2022-10-29T12:20:39.236Z,26.05
2022-10-29T12:21:39.249Z,26.35
2022-10-29T12:22:39.213Z,26.81
2022-10-29T12:23:39.205Z,27.10
2022-10-29T12:24:39.193Z,27.13
2022-10-29T12:25:39.183Z,26.92
2022-10-29T12:26:39.188Z,26.87
2022-10-29T12:27:39.163Z,26.75
2022-10-29T12:28:39.149Z,26.69
2022-10-29T12:29:39.142Z,26.60
2022-10-29T12:30:39.128Z,26.57
2022-10-29T12:31:39.146Z,26.43
2022-10-29T12:32:39.107Z,26.30
2022-10-29T12:33:39.100Z,26.06
2022-10-29T12:34:39.095Z,25.97
2022-10-29T12:35:39.082Z,25.91
2022-10-29T12:36:39.105Z,25.90
2022-10-29T12:37:39.053Z,25.85
2022-10-29T12:38:39.045Z,25.88
2022-10-29T12:39:39.033Z,25.87
2022-10-29T12:40:39.028Z,25.76
2022-10-29T12:41:39.017Z,25.69
2022-10-29T12:42:39.025Z,25.40
2022-10-29T12:43:38.993Z,25.32
2022-10-29T12:44:44.091Z,25.28
2022-10-29T12:45:53.070Z,25.43
2022-10-29T12:46:38.969Z,25.51
2022-10-29T12:47:38.950Z,25.47
2022-10-29T12:48:38.982Z,25.43
2022-10-29T12:49:38.928Z,25.50
2022-10-29T12:50:38.924Z,25.50
2022-10-29T12:51:38.911Z,25.52
2022-10-29T12:52:38.903Z,25.60
2022-10-29T12:53:38.890Z,25.69
2022-10-29T12:54:38.906Z,25.70
2022-10-29T12:55:38.868Z,25.73
2022-10-29T12:56:38.862Z,25.73
2022-10-29T12:57:38.846Z,25.88
2022-10-29T12:58:38.839Z,25.91
2022-10-29T12:59:38.848Z,26.10
2022-10-29T13:00:38.819Z,26.17